Latest Weather Observations for Roxby Downs

IDS60801

Issued at 12:22 pm CDT Friday 18 October 2019 (issued every 10 minutes, with the page automatically refreshed every 10 minutes)

About weather observations | Map of weather stations | Latest weather observations for SA | Other Formats
Station Details ID: 016096 Name: OLYMPIC DAM AERODROME Lat: -30.48 Lon: 136.88 Height: 98.5 m
Data from the previous 72 hours. | See also: Recent months at Roxby Downs
Date/Time
CDT
Temp
°C
App
Temp
°C
Dew
Point
°C
Rel
Hum
%
Delta-T
°C
Wind Press
QNH
hPa
Press
MSL
hPa
Rain since
9am
mm
Dir  Spd
km/h
Gust
km/h
Spd
kts
Gust
kts
18/12:00pm 24.5 20.1 -5.7 13 12.4 NW 9 19 5 10 1020.0 1019.7 0.0
18/11:30am 23.7 18.5 -6.3 13 12.1 NNW 13 19 7 10 1020.4 1020.1 0.0
18/11:00am 22.8 17.7 -5.2 15 11.5 NNW 13 20 7 11 1020.7 1020.4 0.0
18/10:30am 22.0 17.6 -5.8 15 11.2 NNW 9 17 5 9 1021.0 1020.7 0.0
18/10:00am 20.7 17.5 -3.7 19 10.1 ENE 4 9 2 5 1021.1 1020.8 0.0
18/09:30am 20.1 16.7 -1.7 23 9.3 SE 6 7 3 4 1021.1 1020.8 0.0
18/09:00am 18.4 14.7 0.1 29 8.0 SE 9 13 5 7 1020.9 1020.6 0.0
18/08:30am 16.4 12.3 0.1 33 7.0 SSE 11 13 6 7 1020.9 1020.6 0.0
18/08:00am 14.3 10.0 -1.3 34 6.4 SSE 11 15 6 8 1020.5 1020.2 0.0
18/07:30am 12.0 7.6 -5.5 29 6.3 S 9 11 5 6 1020.5 1020.2 0.0
18/07:00am 11.0 7.0 -7.3 27 6.3 SSW 6 9 3 5 1020.1 1019.8 0.0
18/06:30am 11.9 7.3 -8.0 24 6.8 WSW 9 13 5 7 1019.8 1019.5 0.0
18/06:11am 11.8 7.2 -7.6 25 6.7 W 9 30 5 16 1019.4 1019.1 0.0
18/06:00am 6.6 3.5 -11.0 27 5.2 CALM 0 0 0 0 1018.8 1018.5 0.0
18/05:30am 8.1 4.7 -9.3 28 5.5 NNW 2 6 1 3 1018.4 1018.1 0.0
18/05:00am 9.3 5.0 -8.7 27 5.9 NNW 7 9 4 5 1018.6 1018.3 0.0
18/04:30am 8.6 4.2 -10.8 24 5.9 N 7 11 4 6 1018.2 1017.9 0.0
18/04:00am 7.5 4.4 -11.2 25 5.6 CALM 0 0 0 0 1018.0 1017.7 0.0
18/03:30am 8.3 5.3 -9.6 27 5.6 CALM 0 0 0 0 1018.1 1017.8 0.0
18/03:00am 8.2 5.0 -11.7 23 5.9 CALM 0 0 0 0 1018.3 1018.0 0.0
18/02:30am 9.1 4.9 -10.4 24 6.1 NE 6 7 3 4 1018.6 1018.3 0.0
18/02:00am 9.1 4.9 -9.9 25 6.0 SE 6 7 3 4 1018.8 1018.5 0.0
18/01:30am 10.1 5.8 -9.0 25 6.2 E 7 9 4 5 1019.0 1018.7 0.0
18/01:00am 9.9 5.5 -10.2 23 6.4 SSE 7 7 4 4 1019.6 1019.3 0.0
18/12:30am 10.5 6.3 -10.3 22 6.6 SSE 6 6 3 3 1019.8 1019.5 0.0
18/12:00am 11.5 7.4 -9.4 22 6.9 SE 6 7 3 4 1019.7 1019.4 0.0
 
Date/Time
CDT
Temp
°C
App
Temp
°C
Dew
Point
°C
Rel
Hum
%
Delta-T
°C
Wind Press
QNH
hPa
Press
MSL
hPa
Rain since
9am
mm
Dir  Spd
km/h
Gust
km/h
Spd
kts
Gust
kts
17/11:30pm 12.8 8.7 -8.4 22 7.3 S 6 7 3 4 1019.7 1019.4 0.0
17/11:00pm 14.4 9.8 -7.6 21 7.9 SW 9 9 5 5 1019.8 1019.5 0.0
17/10:30pm 13.8 10.9 -8.1 21 7.6 CALM 0 0 0 0 1019.9 1019.6 0.0
17/10:00pm 14.5 11.5 -8.8 19 8.1 CALM 0 0 0 0 1019.8 1019.5 0.0
17/09:30pm 15.5 12.6 -8.0 19 8.4 CALM 0 0 0 0 1019.5 1019.2 0.0
17/09:00pm 16.9 14.0 -8.3 17 9.1 CALM 0 0 0 0 1019.3 1019.0 0.0
17/08:30pm 19.3 16.6 -6.3 17 9.9 CALM 0 0 0 0 1019.0 1018.7 0.0
17/08:00pm 21.2 17.4 -5.6 16 10.8 SSW 6 9 3 5 1018.7 1018.4 0.0
17/07:30pm 21.8 18.0 -5.1 16 10.9 SW 6 9 3 5 1018.6 1018.3 0.0
17/07:00pm 22.6 19.2 -5.3 15 11.4 SSW 4 7 2 4 1018.5 1018.2 0.0
17/06:30pm 23.1 19.1 -5.8 14 11.7 SW 7 19 4 10 1018.4 1018.1 0.0
17/06:00pm 23.5 19.6 -6.5 13 12.1 SSW 6 11 3 6 1018.3 1018.0 0.0
17/05:30pm 23.5 18.9 -7.5 12 12.2 W 9 20 5 11 1018.2 1017.9 0.0
17/05:00pm 23.3 19.2 -6.6 13 12.0 SSW 7 15 4 8 1018.2 1017.9 0.0
17/04:30pm 23.1 17.4 -7.8 12 12.1 SSW 15 20 8 11 1018.2 1017.9 0.0
17/04:00pm 23.2 18.5 -4.8 15 11.6 WSW 11 20 6 11 1018.3 1018.0 0.0
17/03:30pm 22.5 18.8 -4.5 16 11.2 WSW 6 11 3 6 1018.7 1018.4 0.0
17/03:00pm 21.8 16.4 -4.3 17 10.8 SSE 15 26 8 14 1019.1 1018.8 0.0
17/02:30pm 22.3 16.6 -3.9 17 11.0 SSE 17 30 9 16 1019.7 1019.4 0.0
17/02:00pm 21.4 15.8 -2.5 20 10.2 ESE 17 30 9 16 1019.9 1019.6 0.0
17/01:30pm 20.2 15.1 -2.2 22 9.5 SSW 15 28 8 15 1020.3 1020.0 0.0
17/01:00pm 19.8 15.1 -1.9 23 9.3 SSW 13 26 7 14 1020.6 1020.3 0.0
17/12:30pm 18.3 13.3 -1.5 26 8.4 S 15 26 8 14 1020.9 1020.6 0.0
17/12:00pm 18.8 13.9 -0.6 27 8.4 S 15 22 8 12 1021.1 1020.8 0.0
17/11:30am 17.5 11.5 -1.2 28 7.9 S 20 32 11 17 1021.3 1021.0 0.0
17/11:00am 17.0 11.6 -1.1 29 7.6 S 17 28 9 15 1021.8 1021.5 0.0
17/10:30am 16.3 11.1 0.0 33 7.0 S 17 24 9 13 1022.0 1021.7 0.0
17/10:00am 15.0 8.5 0.1 36 6.3 S 24 39 13 21 1022.1 1021.8 0.0
17/09:30am 14.6 8.2 1.2 40 5.8 S 24 32 13 17 1021.8 1021.5 0.0
17/09:00am 14.2 7.1 1.5 42 5.5 S 28 35 15 19 1021.5 1021.2 0.0
17/08:30am 13.4 7.1 3.5 51 4.5 S 26 33 14 18 1021.2 1020.9 0.0
17/08:00am 12.6 6.6 3.6 54 4.0 S 24 32 13 17 1020.9 1020.6 0.0
17/07:30am 11.6 6.7 3.9 59 3.4 S 19 26 10 14 1020.5 1020.2 0.0
17/07:00am 11.2 6.3 4.0 61 3.2 S 19 24 10 13 1020.4 1020.1 0.0
17/06:30am 11.2 7.0 4.0 61 3.2 SSW 15 20 8 11 1020.1 1019.8 0.0
17/06:00am 11.5 6.9 3.8 59 3.4 SSW 17 20 9 11 1019.7 1019.4 0.0
17/05:30am 11.9 7.3 3.7 57 3.7 SSW 17 20 9 11 1019.5 1019.2 0.0
17/05:00am 12.2 8.0 3.7 56 3.8 SSW 15 20 8 11 1019.2 1018.9 0.0
17/04:30am 12.5 7.9 3.7 55 3.9 SSW 17 26 9 14 1019.1 1018.8 0.0
17/04:00am 12.7 8.8 3.6 54 4.1 SSW 13 17 7 9 1019.2 1018.9 0.0
17/03:30am 13.4 8.4 3.8 52 4.3 SSW 19 26 10 14 1019.2 1018.9 0.0
17/03:00am 13.9 8.4 4.2 52 4.5 SSW 22 32 12 17 1019.0 1018.7 0.0
17/02:30am 14.2 9.2 4.5 52 4.5 SW 20 30 11 16 1019.0 1018.7 0.0
17/02:00am 14.5 9.6 5.0 53 4.5 SW 20 28 11 15 1019.1 1018.8 0.0
17/01:30am 14.8 9.5 5.1 52 4.6 SW 22 33 12 18 1019.1 1018.8 0.0
17/01:00am 15.1 9.0 4.8 50 4.8 SW 26 33 14 18 1019.2 1018.9 0.0
17/12:30am 15.4 9.3 4.8 49 5.0 SSW 26 39 14 21 1019.1 1018.8 0.0
17/12:00am 15.8 9.4 5.1 49 5.1 SW 28 41 15 22 1018.9 1018.6 0.0
 
Date/Time
CDT
Temp
°C
App
Temp
°C
Dew
Point
°C
Rel
Hum
%
Delta-T
°C
Wind Press
QNH
hPa
Press
MSL
hPa
Rain since
9am
mm
Dir  Spd
km/h
Gust
km/h
Spd
kts
Gust
kts
16/11:30pm 16.3 8.9 5.0 47 5.4 SW 33 44 18 24 1018.8 1018.5 0.0
16/11:00pm 17.0 8.7 4.3 43 6.0 SW 37 50 20 27 1018.5 1018.2 0.0
16/10:50pm 17.3 10.1 2.9 38 6.6 SW 30 50 16 27 1018.4 1018.1 0.0
16/10:30pm 17.7 9.8 2.1 35 7.1 SW 33 44 18 24 1018.3 1018.0 0.0
16/10:00pm 18.3 10.4 1.3 32 7.6 SW 32 46 17 25 1018.0 1017.7 0.0
16/09:30pm 19.1 11.4 0.2 28 8.3 SW 30 44 16 24 1017.4 1017.1 0.0
16/09:00pm 19.9 11.7 0.4 27 8.7 SW 33 46 18 25 1016.8 1016.5 0.0
16/08:30pm 20.6 13.0 -1.8 22 9.6 SW 28 35 15 19 1016.1 1015.8 0.0
16/08:00pm 21.4 12.9 -1.8 21 10.1 SW 33 44 18 24 1015.5 1015.2 0.0
16/07:30pm 22.1 13.7 -2.6 19 10.6 SSW 32 43 17 23 1014.8 1014.5 0.0
16/07:00pm 23.1 14.1 -2.5 18 11.1 SSW 35 50 19 27 1014.3 1014.0 0.0
16/06:30pm 23.9 14.7 -4.3 15 11.9 SSW 35 46 19 25 1013.8 1013.5 0.0
16/06:14pm 23.9 14.8 -3.4 16 11.7 SSW 35 54 19 29 1013.5 1013.2 0.0
16/06:00pm 24.3 15.6 -3.1 16 11.9 SSW 33 50 18 27 1013.4 1013.1 0.0
16/05:56pm 24.3 15.8 -3.1 16 11.9 SSW 32 50 17 27 1013.4 1013.1 0.0
16/05:30pm 24.9 16.5 -1.0 18 11.7 SSW 33 44 18 24 1013.2 1012.9 0.0
16/05:08pm 24.7 16.7 1.6 22 11.0 SSW 33 56 18 30 1013.1 1012.8 0.0
16/05:00pm 24.7 16.4 2.2 23 10.8 SSW 35 48 19 26 1013.1 1012.8 0.0
16/04:43pm 25.2 17.4 2.6 23 11.0 SSW 33 87 18 47 1012.8 1012.5 0.0
16/04:30pm 25.7 18.0 2.4 22 11.3 SW 32 46 17 25 1012.8 1012.5 0.0
16/04:01pm 25.6 18.1 4.7 26 10.6 SW 33 57 18 31 1012.6 1012.3 0.0
16/04:00pm 25.4 18.1 4.5 26 10.5 SW 32 44 17 24 1012.6 1012.3 0.0
16/03:35pm 26.0 18.9 5.6 27 10.5 SSW 32 50 17 27 1012.9 1012.6 0.0
16/03:30pm 25.0 17.4 5.7 29 9.9 SSW 35 46 19 25 1012.9 1012.6 0.0
16/03:15pm 25.0 18.0 6.2 30 9.7 SSW 32 50 17 27 1012.9 1012.6 0.0
16/03:00pm 25.5 18.7 6.7 30 9.9 SW 32 43 17 23 1013.2 1012.9 0.0
16/02:30pm 24.7 17.2 6.4 31 9.5 SSW 35 46 19 25 1013.1 1012.8 0.0
16/02:00pm 24.5 17.1 6.7 32 9.3 SSW 35 48 19 26 1013.1 1012.8 0.0
16/01:37pm 24.5 17.6 7.2 33 9.1 SSW 33 52 18 28 1013.1 1012.8 0.0
16/01:30pm 24.3 17.0 7.4 34 8.9 SSW 35 48 19 26 1012.9 1012.6 0.0
16/01:12pm 23.5 16.6 7.2 35 8.5 SSW 33 54 18 29 1013.1 1012.8 0.0
16/01:00pm 23.3 16.4 7.4 36 8.3 SSW 33 46 18 25 1013.2 1012.9 0.0
16/12:30pm 23.0 16.2 7.5 37 8.1 SSW 33 50 18 27 1013.0 1012.7 0.0
16/12:00pm 22.1 13.7 7.5 39 7.6 S 41 56 22 30 1013.5 1013.2 0.0
16/11:30am 21.2 13.3 7.8 42 7.0 SSW 39 52 21 28 1013.3 1013.0 0.0
16/11:00am 20.2 13.0 7.6 44 6.5 S 35 46 19 25 1013.5 1013.2 0.0
16/10:30am 20.1 12.9 7.5 44 6.5 SSW 35 50 19 27 1013.1 1012.8 0.0
16/10:00am 18.3 9.8 7.1 48 5.7 SSW 41 56 22 30 1012.8 1012.5 0.0
16/09:30am 17.9 9.4 7.0 49 5.5 S 41 54 22 29 1012.5 1012.2 0.0
16/09:00am 17.6 9.9 7.1 50 5.3 SSW 37 50 20 27 1012.7 1012.4 0.0
16/08:30am 17.6 11.5 6.8 49 5.4 SSW 28 37 15 20 1012.1 1011.8 0.0
16/08:03am 17.5 10.0 6.4 48 5.5 SSW 35 56 19 30 1011.7 1011.4 0.0
16/08:00am 17.7 10.8 6.3 47 5.6 SSW 32 41 17 22 1011.5 1011.2 0.0
16/07:30am 17.4 10.9 4.7 43 6.1 SSW 28 39 15 21 1011.2 1010.9 0.0
16/07:08am 17.6 10.9 3.5 39 6.6 SSW 28 46 15 25 1010.5 1010.2 0.0
16/07:00am 17.7 10.6 3.6 39 6.6 SSW 30 39 16 21 1010.7 1010.4 0.0
16/06:30am 18.5 11.4 6.4 45 6.0 SSW 33 44 18 24 1010.3 1010.0 0.0
16/06:00am 22.2 18.0 7.6 39 7.6 SW 19 35 10 19 1009.4 1009.1 0.0
16/05:30am 22.6 20.1 6.4 35 8.3 ENE 9 11 5 6 1008.2 1007.9 0.0
16/05:00am 22.4 20.5 7.4 38 7.8 WNW 7 13 4 7 1008.3 1008.0 0.0
16/04:30am 22.7 20.3 6.9 36 8.2 E 9 11 5 6 1008.5 1008.2 0.0
16/04:00am 22.9 19.6 6.2 34 8.5 SE 13 17 7 9 1007.6 1007.3 0.0
16/03:30am 23.0 20.1 6.3 34 8.6 SSW 11 22 6 12 1008.9 1008.6 0.0
16/03:00am 23.5 20.5 5.9 32 9.0 ESE 11 13 6 7 1008.3 1008.0 0.0
16/02:30am 23.9 20.9 6.2 32 9.1 SSE 11 17 6 9 1009.3 1009.0 0.0
16/02:00am 23.6 20.0 6.8 34 8.7 SE 15 19 8 10 1008.7 1008.4 0.0
16/01:30am 24.0 19.9 6.3 32 9.1 SE 17 24 9 13 1008.8 1008.5 0.0
16/01:00am 24.6 20.2 6.4 31 9.4 SE 19 20 10 11 1009.3 1009.0 0.0
16/12:30am 25.2 20.6 6.4 30 9.8 SE 20 30 11 16 1009.7 1009.4 0.0
16/12:00am 25.7 20.8 6.8 30 9.9 SSE 22 32 12 17 1010.0 1009.7 0.0
 
Date/Time
CDT
Temp
°C
App
Temp
°C
Dew
Point
°C
Rel
Hum
%
Delta-T
°C
Wind Press
QNH
hPa
Press
MSL
hPa
Rain since
9am
mm
Dir  Spd
km/h
Gust
km/h
Spd
kts
Gust
kts
15/11:30pm 27.0 21.0 5.3 25 11.2 SSE 26 39 14 21 1010.3 1010.0 0.0
15/11:00pm 27.5 21.7 4.5 23 11.7 SE 24 33 13 18 1010.0 1009.7 0.0
15/10:30pm 28.1 22.2 3.7 21 12.3 SSE 24 33 13 18 1009.5 1009.2 0.0
15/10:00pm 28.6 22.9 2.7 19 12.9 SE 22 33 12 18 1008.8 1008.5 0.0
15/09:30pm 28.7 23.2 2.1 18 13.1 ESE 20 33 11 18 1007.9 1007.6 0.0
15/09:00pm 28.8 23.5 2.1 18 13.2 SE 19 28 10 15 1008.9 1008.6 0.0
15/08:30pm 29.0 23.8 2.3 18 13.3 SE 19 26 10 14 1008.1 1007.8 0.0
15/08:00pm 29.3 23.5 2.5 18 13.4 SE 22 28 12 15 1007.9 1007.6 0.0
15/07:30pm 30.2 24.1 2.5 17 13.9 ESE 24 33 13 18 1008.0 1007.7 0.0
15/07:00pm 31.3 25.9 2.5 16 14.5 ESE 20 28 11 15 1007.9 1007.6 0.0
15/06:30pm 32.4 28.3 2.5 15 15.2 E 13 20 7 11 1008.0 1007.7 0.0
15/06:00pm 32.5 28.7 1.6 14 15.5 NE 11 20 6 11 1008.3 1008.0 0.0
15/05:30pm 32.7 28.1 1.7 14 15.6 NE 15 24 8 13 1008.0 1007.7 0.0
15/05:00pm 33.0 29.2 2.0 14 15.7 ENE 11 20 6 11 1007.9 1007.6 0.0
15/04:30pm 33.0 28.5 2.0 14 15.7 E 15 30 8 16 1008.2 1007.9 0.0
15/04:00pm 32.3 27.5 2.4 15 15.2 E 17 30 9 16 1008.2 1007.9 0.0
15/03:30pm 32.8 28.0 2.8 15 15.4 E 17 24 9 13 1008.8 1008.5 0.0
15/03:00pm 31.6 26.4 2.7 16 14.7 E 19 30 10 16 1010.0 1009.7 0.0
15/02:30pm 31.2 27.3 3.3 17 14.3 ESE 13 26 7 14 1010.9 1010.6 0.0
15/02:00pm 30.5 25.9 3.5 18 13.8 SE 17 24 9 13 1011.5 1011.2 0.0
15/01:30pm 30.0 25.7 3.1 18 13.6 SE 15 22 8 12 1012.0 1011.7 0.0
15/01:00pm 29.6 25.4 3.6 19 13.2 SSE 15 24 8 13 1012.2 1011.9 0.0
15/12:30pm 29.3 25.4 3.3 19 13.1 ESE 13 24 7 13 1012.7 1012.4 0.0

Other formats

Comma delimited format used in spreadsheet applications
http://www.bom.gov.au/fwo/IDS60801/IDS60801.95658.axf

JavaScript Object Notation format (JSON) in row-major order
http://www.bom.gov.au/fwo/IDS60801/IDS60801.95658.json

Data quality

Most of these data are generated automatically and are frequently updated. Quality checks on data are not normally performed. It is possible for incorrect values to appear. Refer to information at About Latest Weather Observations and please check the disclaimer before using these data.